createdAt,value
2018-11-27T00:01:49.538Z,59.50
2018-11-27T00:04:18.083Z,59.50
2018-11-27T00:06:46.758Z,59.50
2018-11-27T00:09:17.427Z,59.50
2018-11-27T00:11:46.058Z,59.50
2018-11-27T00:14:25.139Z,59.50
2018-11-27T00:16:54.400Z,59.50
2018-11-27T00:19:22.978Z,59.60
2018-11-27T00:21:51.516Z,59.60
2018-11-27T00:24:21.338Z,59.50
2018-11-27T00:26:49.930Z,59.60
2018-11-27T00:29:18.502Z,59.60
2018-11-27T00:31:47.052Z,59.50
2018-11-27T00:34:15.582Z,59.50
2018-11-27T00:36:44.070Z,59.50
2018-11-27T00:39:12.766Z,59.50
2018-11-27T00:41:42.506Z,59.50
2018-11-27T00:44:11.070Z,59.60
2018-11-27T00:46:39.668Z,59.60
2018-11-27T00:49:08.264Z,59.60
2018-11-27T00:51:36.851Z,59.50
2018-11-27T00:54:05.366Z,59.60
2018-11-27T00:56:34.446Z,59.70
2018-11-27T00:59:03.130Z,59.60
2018-11-27T01:01:32.258Z,59.70
2018-11-27T01:04:00.930Z,59.60
2018-11-27T01:06:29.926Z,59.60
2018-11-27T01:08:58.566Z,59.50
2018-11-27T01:11:27.200Z,59.50
2018-11-27T01:13:56.247Z,59.40
2018-11-27T01:16:24.851Z,59.60
2018-11-27T01:18:54.376Z,59.50
2018-11-27T01:21:22.906Z,59.40
2018-11-27T01:23:52.178Z,59.40
2018-11-27T01:26:20.707Z,59.40
2018-11-27T01:28:49.322Z,59.40
2018-11-27T01:31:18.200Z,59.40
2018-11-27T01:33:46.790Z,59.50
2018-11-27T01:36:15.523Z,59.50
2018-11-27T01:38:44.025Z,59.40
2018-11-27T01:41:12.612Z,59.20
2018-11-27T01:43:41.151Z,59.30
2018-11-27T01:46:09.839Z,59.30
2018-11-27T01:48:38.358Z,59.30
2018-11-27T01:51:07.210Z,59.40
2018-11-27T01:53:36.369Z,59.50
2018-11-27T01:56:05.721Z,59.30
2018-11-27T01:58:34.242Z,59.40
2018-11-27T02:01:02.738Z,59.50
2018-11-27T02:03:31.256Z,59.50
2018-11-27T02:05:59.710Z,59.50
2018-11-27T02:08:28.950Z,59.40
2018-11-27T02:10:58.228Z,59.40
2018-11-27T02:13:26.914Z,59.30
2018-11-27T02:15:55.742Z,59.40
2018-11-27T02:18:24.470Z,59.50
2018-11-27T02:20:53.098Z,59.50
2018-11-27T02:23:22.935Z,59.50
2018-11-27T02:25:52.002Z,59.50
2018-11-27T02:28:20.546Z,59.50
2018-11-27T02:30:49.053Z,59.60
2018-11-27T02:33:17.710Z,59.70
2018-11-27T02:35:46.411Z,59.70
2018-11-27T02:38:14.943Z,59.60
2018-11-27T02:40:43.462Z,59.50
2018-11-27T02:43:12.080Z,59.40
2018-11-27T02:45:40.739Z,59.40
2018-11-27T02:48:09.221Z,59.50
2018-11-27T02:50:37.739Z,59.50
2018-11-27T02:53:10.614Z,59.60
2018-11-27T02:55:39.166Z,59.50
2018-11-27T02:58:07.671Z,59.60
2018-11-27T03:00:36.426Z,59.60
2018-11-27T03:03:05.552Z,59.50
2018-11-27T03:05:35.530Z,59.40
2018-11-27T03:08:04.181Z,59.40
2018-11-27T03:10:32.951Z,59.50
2018-11-27T03:13:01.379Z,59.50
2018-11-27T03:15:30.678Z,59.50
2018-11-27T03:17:59.303Z,59.50
2018-11-27T03:20:28.430Z,59.40
2018-11-27T03:22:57.033Z,59.30
2018-11-27T03:25:25.628Z,59.30
2018-11-27T03:27:54.658Z,59.20
2018-11-27T03:30:24.547Z,59.10
2018-11-27T03:32:53.068Z,59.00
2018-11-27T03:35:26.107Z,59.00
2018-11-27T03:37:54.777Z,59.00
2018-11-27T03:40:24.562Z,59.10
2018-11-27T03:42:53.290Z,59.10
2018-11-27T03:45:22.800Z,59.10
2018-11-27T03:47:52.029Z,59.20
2018-11-27T03:50:27.727Z,59.20
2018-11-27T03:53:01.360Z,59.20
2018-11-27T03:55:29.854Z,59.20
2018-11-27T03:57:58.348Z,59.10
2018-11-27T04:00:28.282Z,59.20
2018-11-27T04:03:10.674Z,59.20
2018-11-27T04:05:39.502Z,59.20
2018-11-27T04:08:10.019Z,59.20
2018-11-27T04:10:39.875Z,59.10
2018-11-27T04:13:08.460Z,59.10
2018-11-27T04:15:37.134Z,59.20
2018-11-27T04:18:05.655Z,59.10
2018-11-27T04:20:34.172Z,58.90
2018-11-27T04:23:02.635Z,58.80
2018-11-27T04:25:31.130Z,58.80
2018-11-27T04:27:59.755Z,58.90
2018-11-27T04:30:28.274Z,58.90
2018-11-27T04:32:56.791Z,58.80
2018-11-27T04:35:25.388Z,58.80
2018-11-27T04:37:53.873Z,58.90
2018-11-27T04:40:26.685Z,58.80
2018-11-27T04:42:55.345Z,58.60
2018-11-27T04:45:25.156Z,58.50
2018-11-27T04:47:54.506Z,58.50
2018-11-27T04:50:23.203Z,58.40
2018-11-27T04:52:51.856Z,58.30
2018-11-27T04:55:21.467Z,58.30
2018-11-27T04:57:52.509Z,58.30
2018-11-27T05:00:23.100Z,58.40
2018-11-27T05:02:52.022Z,58.40
2018-11-27T05:05:20.655Z,58.30
2018-11-27T05:07:49.194Z,58.30
2018-11-27T05:10:19.794Z,58.30
2018-11-27T05:12:48.435Z,58.20
2018-11-27T05:15:20.786Z,58.10
2018-11-27T05:17:51.624Z,58.10
2018-11-27T05:20:20.415Z,58.10
2018-11-27T05:22:49.506Z,58.60
2018-11-27T05:25:19.788Z,58.00
2018-11-27T05:27:51.746Z,57.90
2018-11-27T05:30:21.865Z,58.00
2018-11-27T05:32:51.152Z,58.00
2018-11-27T05:35:22.775Z,57.90
2018-11-27T05:37:51.892Z,57.90
2018-11-27T05:40:29.232Z,57.90
2018-11-27T05:43:04.934Z,58.00
2018-11-27T05:45:41.014Z,58.00
2018-11-27T05:48:23.171Z,57.90
2018-11-27T05:50:56.700Z,57.90
2018-11-27T05:53:44.266Z,57.70
2018-11-27T05:56:19.784Z,57.50
2018-11-27T05:58:50.300Z,57.70
2018-11-27T06:01:21.955Z,57.70
2018-11-27T06:03:52.298Z,57.60
2018-11-27T06:06:21.713Z,57.60
2018-11-27T06:08:51.146Z,57.60
2018-11-27T06:11:19.978Z,57.40
2018-11-27T06:13:48.936Z,57.40
2018-11-27T06:16:18.240Z,57.30
2018-11-27T06:18:47.850Z,57.40
2018-11-27T06:21:16.690Z,57.40
2018-11-27T06:23:50.026Z,57.40
2018-11-27T06:26:18.765Z,57.40
2018-11-27T06:28:47.589Z,57.40
2018-11-27T06:31:18.370Z,57.30
2018-11-27T06:33:48.178Z,57.30
2018-11-27T06:36:17.044Z,57.20
2018-11-27T06:38:51.613Z,57.00
2018-11-27T06:41:21.454Z,57.00
2018-11-27T06:43:50.051Z,57.20
2018-11-27T06:46:20.386Z,57.20
2018-11-27T06:48:55.521Z,57.20
2018-11-27T06:51:26.229Z,57.00
2018-11-27T06:54:04.763Z,56.80
2018-11-27T06:56:34.115Z,56.90
2018-11-27T06:59:04.541Z,57.00
2018-11-27T07:01:35.797Z,57.10
2018-11-27T07:04:04.834Z,57.00
2018-11-27T07:06:41.081Z,57.10
2018-11-27T07:09:10.873Z,57.10
2018-11-27T07:11:41.373Z,57.00
2018-11-27T07:14:12.144Z,57.10
2018-11-27T07:16:41.269Z,57.00
2018-11-27T07:19:13.561Z,56.90
2018-11-27T07:21:42.705Z,56.90
2018-11-27T07:24:11.935Z,57.00
2018-11-27T07:26:41.327Z,56.90
2018-11-27T07:29:17.128Z,56.80
2018-11-27T07:31:49.483Z,56.70
2018-11-27T07:34:26.134Z,56.80
2018-11-27T07:36:55.511Z,56.70
2018-11-27T07:39:25.117Z,56.60
2018-11-27T07:41:54.397Z,56.70
2018-11-27T07:44:23.115Z,56.70
2018-11-27T07:46:57.317Z,56.80
2018-11-27T07:49:26.791Z,56.60
2018-11-27T07:51:56.103Z,56.60
2018-11-27T07:54:27.370Z,56.60
2018-11-27T07:56:57.309Z,56.70
2018-11-27T07:59:32.843Z,56.50
2018-11-27T08:02:05.933Z,56.40
2018-11-27T08:04:34.995Z,56.10
2018-11-27T08:07:07.132Z,56.70
2018-11-27T08:09:38.799Z,56.10
2018-11-27T08:12:08.436Z,56.30
2018-11-27T08:14:46.361Z,55.60
2018-11-27T08:17:19.675Z,56.00
2018-11-27T08:19:49.253Z,55.80
2018-11-27T08:22:25.113Z,55.80
2018-11-27T08:24:57.857Z,55.80
2018-11-27T08:27:27.701Z,55.70
2018-11-27T08:30:00.493Z,55.70
2018-11-27T08:32:31.812Z,55.50
2018-11-27T08:35:12.123Z,55.80
2018-11-27T08:37:43.760Z,55.70
2018-11-27T08:40:15.004Z,55.80
2018-11-27T08:42:46.404Z,56.00
2018-11-27T08:45:21.699Z,55.70
2018-11-27T08:47:59.721Z,55.60
2018-11-27T08:50:30.498Z,55.50
2018-11-27T08:53:06.906Z,55.80
2018-11-27T08:55:39.650Z,55.50
2018-11-27T08:58:28.576Z,55.50
2018-11-27T09:00:58.826Z,55.40
2018-11-27T09:03:29.418Z,55.50
2018-11-27T09:06:05.314Z,55.40
2018-11-27T09:08:35.505Z,55.50
2018-11-27T09:11:06.608Z,55.50
2018-11-27T09:13:40.783Z,55.60
2018-11-27T09:16:10.365Z,55.60
2018-11-27T09:18:43.405Z,55.80
2018-11-27T09:21:14.745Z,55.40
2018-11-27T09:26:39.011Z,55.50
2018-11-27T09:29:11.211Z,55.30
2018-11-27T09:31:45.055Z,55.50
2018-11-27T09:34:17.951Z,55.50
2018-11-27T09:36:51.600Z,55.60
2018-11-27T09:39:22.745Z,55.50
2018-11-27T09:41:55.041Z,55.10
2018-11-27T09:44:36.937Z,55.40
2018-11-27T09:47:23.515Z,55.30
2018-11-27T09:49:54.959Z,55.30
2018-11-27T09:52:33.805Z,55.00
2018-11-27T09:55:05.779Z,54.90
2018-11-27T09:57:37.449Z,55.20
2018-11-27T10:00:20.721Z,55.30
2018-11-27T10:02:51.848Z,55.20
2018-11-27T10:05:29.210Z,55.20
2018-11-27T10:08:01.353Z,54.40
2018-11-27T10:10:32.902Z,55.20
2018-11-27T10:13:10.974Z,54.60
2018-11-27T10:15:45.918Z,54.50
2018-11-27T10:18:17.441Z,54.50
2018-11-27T10:20:54.478Z,54.60
2018-11-27T10:23:24.917Z,54.60
2018-11-27T10:26:04.726Z,54.50
2018-11-27T10:28:39.509Z,54.40
2018-11-27T10:31:09.725Z,54.50
2018-11-27T10:33:39.174Z,54.50
2018-11-27T10:36:08.578Z,54.40
2018-11-27T10:38:38.281Z,54.30
2018-11-27T10:41:08.626Z,54.30
2018-11-27T10:43:39.266Z,54.50
2018-11-27T10:46:09.396Z,53.90
2018-11-27T10:48:39.507Z,53.50
2018-11-27T10:51:12.219Z,53.50
2018-11-27T10:53:41.760Z,53.40
2018-11-27T10:56:20.086Z,53.40
2018-11-27T10:58:50.595Z,53.80
2018-11-27T11:01:26.108Z,53.50
2018-11-27T11:03:57.594Z,53.50
2018-11-27T11:06:27.776Z,53.30
2018-11-27T11:08:56.588Z,53.30
2018-11-27T11:11:25.158Z,53.20
2018-11-27T11:13:54.813Z,53.40
2018-11-27T11:16:26.430Z,53.20
2018-11-27T11:18:56.832Z,53.20
2018-11-27T11:21:27.410Z,53.40
2018-11-27T11:24:03.443Z,53.50
2018-11-27T11:26:33.075Z,53.50
2018-11-27T11:29:04.616Z,53.30
2018-11-27T11:31:34.374Z,53.30
2018-11-27T11:34:04.989Z,53.20
2018-11-27T11:36:38.893Z,52.50
2018-11-27T11:39:11.247Z,52.50
2018-11-27T11:41:41.937Z,52.80
2018-11-27T11:44:12.127Z,52.80
2018-11-27T11:46:42.741Z,52.80
2018-11-27T11:49:18.755Z,52.90
2018-11-27T11:51:54.907Z,52.30
2018-11-27T11:54:24.677Z,52.30
2018-11-27T11:56:53.894Z,52.30
2018-11-27T11:59:28.823Z,52.30
2018-11-27T12:01:56.078Z,51.40
2018-11-27T12:04:25.587Z,51.60
2018-11-27T12:06:55.395Z,50.90
2018-11-27T12:09:24.620Z,50.70
2018-11-27T12:12:04.516Z,50.90
2018-11-27T12:14:33.867Z,50.90
2018-11-27T12:17:03.757Z,50.30
2018-11-27T12:19:36.338Z,50.10
2018-11-27T12:22:05.069Z,50.40
2018-11-27T12:24:33.682Z,50.30
2018-11-27T12:27:04.639Z,50.30
2018-11-27T12:29:40.614Z,50.20
2018-11-27T12:32:09.709Z,50.20
2018-11-27T12:34:42.507Z,49.90
2018-11-27T12:37:11.649Z,49.80
2018-11-27T12:39:41.716Z,49.50
2018-11-27T12:42:10.549Z,49.40
2018-11-27T12:44:39.514Z,49.20
2018-11-27T12:47:16.010Z,48.80
2018-11-27T12:49:45.043Z,48.80
2018-11-27T12:52:14.073Z,49.20
2018-11-27T12:54:46.227Z,49.50
2018-11-27T12:57:25.791Z,49.80
2018-11-27T12:59:59.601Z,49.80
2018-11-27T13:02:45.049Z,50.00
2018-11-27T13:05:24.611Z,49.80
2018-11-27T13:08:12.820Z,49.90
2018-11-27T13:10:45.565Z,50.00
2018-11-27T13:13:22.827Z,50.20
2018-11-27T13:15:51.936Z,50.10
2018-11-27T13:18:21.051Z,49.80
2018-11-27T13:20:50.073Z,49.60
2018-11-27T13:23:22.793Z,49.80
2018-11-27T13:25:51.561Z,50.00
2018-11-27T13:28:20.256Z,50.00
2018-11-27T13:30:53.143Z,50.00
2018-11-27T13:33:27.232Z,50.00
2018-11-27T13:35:56.486Z,49.80
2018-11-27T13:38:27.316Z,49.70
2018-11-27T13:40:57.766Z,50.00
2018-11-27T13:43:36.441Z,50.20
2018-11-27T13:46:08.104Z,50.30
2018-11-27T13:48:38.695Z,50.40
2018-11-27T13:51:11.421Z,50.40
2018-11-27T13:53:44.551Z,50.20
2018-11-27T13:56:16.516Z,50.90
2018-11-27T13:58:48.924Z,50.70
2018-11-27T14:01:24.533Z,50.50
2018-11-27T14:03:55.310Z,50.90
2018-11-27T14:06:29.201Z,50.90
2018-11-27T14:09:23.964Z,50.90
2018-11-27T14:11:59.154Z,50.80
2018-11-27T14:14:42.580Z,51.10
2018-11-27T14:17:18.102Z,50.80
2018-11-27T14:19:52.024Z,50.50
2018-11-27T14:22:25.207Z,50.80
2018-11-27T14:24:54.945Z,51.20
2018-11-27T14:27:28.910Z,51.20
2018-11-27T14:30:17.124Z,51.40
2018-11-27T14:32:48.011Z,51.10
2018-11-27T14:35:26.097Z,51.50
2018-11-27T14:38:04.562Z,51.10
2018-11-27T14:40:36.924Z,51.30
2018-11-27T14:43:14.492Z,51.90
2018-11-27T14:45:48.650Z,51.50
2018-11-27T14:48:20.578Z,51.40
2018-11-27T14:50:54.542Z,51.80
2018-11-27T14:53:29.186Z,51.60
2018-11-27T14:56:01.222Z,52.00
2018-11-27T14:58:43.662Z,51.90
2018-11-27T15:01:19.221Z,51.70
2018-11-27T15:03:52.466Z,52.00
2018-11-27T15:06:36.688Z,52.10
2018-11-27T15:09:14.206Z,51.70
2018-11-27T15:11:47.772Z,52.10
2018-11-27T15:14:27.688Z,52.00
2018-11-27T15:17:03.404Z,52.00
2018-11-27T15:19:41.962Z,51.90
2018-11-27T15:22:11.008Z,51.90
2018-11-27T15:24:49.977Z,52.00
2018-11-27T15:40:53.873Z,51.90
2018-11-27T15:43:24.106Z,52.00
2018-11-27T15:46:04.111Z,52.40
2018-11-27T15:48:33.446Z,52.00
2018-11-27T15:51:07.022Z,52.20
2018-11-27T15:53:38.143Z,52.20
2018-11-27T15:56:07.465Z,52.20
2018-11-27T15:58:36.523Z,52.30
2018-11-27T16:01:05.331Z,52.40
2018-11-27T16:03:33.859Z,52.40
2018-11-27T16:06:08.019Z,52.40
2018-11-27T16:08:51.956Z,52.40
2018-11-27T16:11:20.671Z,52.40
2018-11-27T16:13:58.499Z,52.40
2018-11-27T16:16:27.129Z,52.50
2018-11-27T16:18:56.219Z,52.60
2018-11-27T16:21:27.031Z,52.60
2018-11-27T16:24:02.655Z,52.60
2018-11-27T16:26:32.644Z,52.60
2018-11-27T16:29:14.203Z,52.70
2018-11-27T16:34:36.065Z,52.90
2018-11-27T16:37:18.083Z,52.80
2018-11-27T16:43:04.117Z,52.90
2018-11-27T16:45:36.457Z,52.90
2018-11-27T16:48:09.343Z,53.10
2018-11-27T16:50:46.837Z,53.00
2018-11-27T16:53:18.098Z,53.00
2018-11-27T16:55:51.613Z,53.80
2018-11-27T16:58:23.005Z,53.30
2018-11-27T17:00:52.028Z,53.10
2018-11-27T17:03:26.948Z,53.20
2018-11-27T17:05:59.802Z,53.20
2018-11-27T17:08:29.175Z,53.20
2018-11-27T17:11:00.002Z,53.30
2018-11-27T17:13:36.253Z,53.20
2018-11-27T17:16:11.665Z,53.30
2018-11-27T17:18:41.803Z,53.30
2018-11-27T17:21:11.506Z,53.30
2018-11-27T17:23:49.441Z,53.50
2018-11-27T17:26:20.747Z,53.50
2018-11-27T17:28:52.210Z,53.50
2018-11-27T17:31:24.874Z,53.70
2018-11-27T17:34:30.449Z,53.50
2018-11-27T17:37:04.075Z,53.50
2018-11-27T17:53:07.317Z,54.20
2018-11-27T17:55:36.767Z,53.60
2018-11-27T17:58:06.351Z,53.70
2018-11-27T18:00:40.012Z,53.70
2018-11-27T18:03:13.219Z,53.70
2018-11-27T18:05:42.343Z,53.90
2018-11-27T18:08:11.690Z,53.80
2018-11-27T18:10:40.815Z,53.80
2018-11-27T18:13:11.093Z,53.80
2018-11-27T18:15:49.011Z,53.80
2018-11-27T18:18:20.189Z,53.80
2018-11-27T18:20:49.014Z,53.90
2018-11-27T18:23:18.431Z,53.90
2018-11-27T18:25:47.685Z,53.90
2018-11-27T18:28:18.563Z,53.90
2018-11-27T18:30:47.755Z,54.00
2018-11-27T18:33:17.817Z,54.00
2018-11-27T18:35:47.407Z,54.00
2018-11-27T18:38:20.015Z,54.10
2018-11-27T18:40:56.911Z,54.10
2018-11-27T18:43:25.905Z,54.10
2018-11-27T18:45:55.150Z,54.20
2018-11-27T18:48:24.387Z,54.20
2018-11-27T18:50:53.675Z,54.30
2018-11-27T18:53:22.684Z,54.30
2018-11-27T18:55:52.501Z,54.30
2018-11-27T18:58:21.381Z,54.30
2018-11-27T19:00:51.504Z,54.30
2018-11-27T19:03:22.924Z,54.30
2018-11-27T19:05:54.625Z,54.30
2018-11-27T19:08:27.669Z,54.30
2018-11-27T19:10:56.923Z,54.30
2018-11-27T19:13:26.197Z,54.20
2018-11-27T19:15:56.967Z,54.40
2018-11-27T19:18:27.377Z,54.30
2018-11-27T19:20:56.022Z,55.00
2018-11-27T19:23:26.611Z,54.40
2018-11-27T19:25:56.522Z,54.50
2018-11-27T19:28:27.226Z,54.50
2018-11-27T19:30:56.669Z,54.50
2018-11-27T19:33:25.646Z,54.50
2018-11-27T19:35:54.529Z,54.60
2018-11-27T19:38:23.496Z,54.50
2018-11-27T19:40:52.764Z,54.60
2018-11-27T19:43:38.196Z,54.60
2018-11-27T19:46:08.512Z,54.50
2018-11-27T19:48:37.824Z,54.60
2018-11-27T19:51:06.820Z,54.60
2018-11-27T19:53:37.394Z,54.70
2018-11-27T19:56:07.099Z,54.70
2018-11-27T19:58:36.158Z,54.70
2018-11-27T20:01:05.692Z,54.90
2018-11-27T20:03:34.466Z,54.90
2018-11-27T20:06:03.314Z,55.00
2018-11-27T20:08:31.877Z,54.90
2018-11-27T20:11:00.641Z,55.00
2018-11-27T20:13:29.692Z,55.00
2018-11-27T20:16:00.296Z,55.00
2018-11-27T20:18:29.258Z,54.90
2018-11-27T20:20:58.060Z,55.00
2018-11-27T20:23:27.048Z,55.00
2018-11-27T20:25:56.660Z,55.00
2018-11-27T20:28:25.805Z,55.20
2018-11-27T20:30:55.796Z,55.20
2018-11-27T20:33:26.025Z,55.20
2018-11-27T20:35:55.092Z,55.30
2018-11-27T20:38:24.257Z,55.30
2018-11-27T20:40:53.895Z,55.10
2018-11-27T20:43:22.991Z,55.10
2018-11-27T20:45:56.048Z,55.10
2018-11-27T20:48:25.415Z,55.10
2018-11-27T20:50:54.467Z,55.10
2018-11-27T20:53:24.483Z,55.10
2018-11-27T20:55:53.670Z,55.20
2018-11-27T20:58:23.462Z,55.20
2018-11-27T21:00:53.502Z,55.20
2018-11-27T21:03:24.208Z,55.10
2018-11-27T21:05:55.706Z,55.10
2018-11-27T21:08:26.973Z,55.20
2018-11-27T21:10:57.954Z,55.30
2018-11-27T21:13:29.007Z,55.50
2018-11-27T21:15:59.542Z,55.30
2018-11-27T21:18:28.470Z,55.30
2018-11-27T21:20:57.669Z,55.20
2018-11-27T21:23:26.647Z,55.20
2018-11-27T21:26:05.606Z,55.20
2018-11-27T21:28:36.298Z,55.20
2018-11-27T21:31:07.260Z,55.20
2018-11-27T21:33:37.574Z,55.30
2018-11-27T21:36:06.627Z,55.30
2018-11-27T21:38:35.978Z,55.40
2018-11-27T21:41:05.172Z,55.40
2018-11-27T21:43:34.055Z,55.40
2018-11-27T21:46:04.110Z,55.40
2018-11-27T21:48:33.001Z,55.30
2018-11-27T21:51:02.171Z,55.30
2018-11-27T21:53:37.421Z,55.40
2018-11-27T21:56:06.947Z,55.20
2018-11-27T21:58:36.052Z,55.30
2018-11-27T22:01:06.243Z,55.40
2018-11-27T22:03:35.335Z,55.30
2018-11-27T22:06:04.722Z,55.40
2018-11-27T22:08:34.400Z,55.40
2018-11-27T22:11:07.349Z,55.40
2018-11-27T22:13:36.592Z,55.40
2018-11-27T22:16:06.043Z,55.40
2018-11-27T22:18:35.047Z,55.50
2018-11-27T22:23:56.517Z,55.50
2018-11-27T22:26:25.961Z,55.40
2018-11-27T22:28:54.763Z,54.90
2018-11-27T22:31:23.909Z,55.50
2018-11-27T22:33:53.009Z,56.10
2018-11-27T22:36:22.034Z,55.50
2018-11-27T22:38:51.368Z,55.60
2018-11-27T22:41:20.398Z,55.60
2018-11-27T22:43:52.815Z,55.70
2018-11-27T22:46:23.063Z,55.60
2018-11-27T22:48:52.002Z,55.60
2018-11-27T22:51:21.255Z,56.30
2018-11-27T22:53:51.065Z,55.70
2018-11-27T22:56:20.451Z,55.60
2018-11-27T22:58:49.367Z,55.60
2018-11-27T23:01:19.211Z,55.60
2018-11-27T23:03:48.359Z,55.60
2018-11-27T23:06:17.521Z,55.60
2018-11-27T23:08:46.777Z,55.60
2018-11-27T23:11:16.143Z,55.60
2018-11-27T23:13:45.363Z,55.60
2018-11-27T23:16:14.331Z,55.50
2018-11-27T23:18:43.687Z,55.50
2018-11-27T23:21:12.830Z,55.50
2018-11-27T23:23:42.838Z,55.40
2018-11-27T23:26:12.054Z,55.40
2018-11-27T23:34:46.082Z,55.30
2018-11-27T23:37:14.973Z,55.40
2018-11-27T23:39:44.867Z,55.40
2018-11-27T23:42:13.991Z,55.40
2018-11-27T23:44:42.991Z,55.50
2018-11-27T23:47:12.601Z,55.60
2018-11-27T23:49:42.067Z,55.50
2018-11-27T23:52:17.185Z,55.60
2018-11-27T23:54:46.331Z,55.60
2018-11-27T23:57:15.315Z,55.70
2018-11-27T23:59:44.513Z,55.70
